createdAt,value
2018-12-17T00:01:48.373Z,98891.95
2018-12-17T00:04:19.632Z,98889.94
2018-12-17T00:06:51.581Z,98889.73
2018-12-17T00:09:20.781Z,98893.65
2018-12-17T00:11:51.133Z,98896.37
2018-12-17T00:14:20.309Z,98901.89
2018-12-17T00:16:49.521Z,98907.52
2018-12-17T00:19:19.218Z,98908.00
2018-12-17T00:21:48.944Z,98907.62
2018-12-17T00:24:18.650Z,98906.36
2018-12-17T00:26:47.880Z,98910.84
2018-12-17T00:29:19.072Z,98918.02
2018-12-17T00:31:48.243Z,98915.56
2018-12-17T00:34:17.463Z,98919.13
2018-12-17T00:36:47.275Z,98912.83
2018-12-17T00:39:17.294Z,98916.27
2018-12-17T00:41:46.445Z,98916.38
2018-12-17T00:44:15.582Z,98911.52
2018-12-17T00:46:45.090Z,98922.37
2018-12-17T00:49:14.564Z,98917.95
2018-12-17T00:51:43.687Z,98919.66
2018-12-17T00:54:12.902Z,98920.11
2018-12-17T00:56:43.497Z,98925.41
2018-12-17T00:59:12.921Z,98928.52
2018-12-17T01:01:42.151Z,98921.81
2018-12-17T01:04:12.450Z,98920.01
2018-12-17T01:06:42.371Z,98923.18
2018-12-17T01:09:14.797Z,98926.13
2018-12-17T01:11:44.210Z,98932.31
2018-12-17T01:14:13.897Z,98932.09
2018-12-17T01:16:44.072Z,98939.63
2018-12-17T01:19:13.256Z,98941.54
2018-12-17T01:21:43.067Z,98953.13
2018-12-17T01:24:12.227Z,98949.61
2018-12-17T01:26:41.534Z,98949.61
2018-12-17T01:29:11.555Z,98941.97
2018-12-17T01:38:39.635Z,98957.66
2018-12-17T01:41:09.058Z,98956.88
2018-12-17T01:43:38.658Z,98950.85
2018-12-17T01:46:07.839Z,98954.77
2018-12-17T01:48:37.068Z,98955.68
2018-12-17T01:51:06.548Z,98954.67
2018-12-17T01:53:37.444Z,98951.56
2018-12-17T01:56:06.680Z,98959.91
2018-12-17T01:58:35.910Z,98953.27
2018-12-17T02:01:05.928Z,98951.45
2018-12-17T02:03:35.813Z,98949.34
2018-12-17T02:06:06.729Z,98948.11
2018-12-17T02:08:37.170Z,98949.69
2018-12-17T02:11:06.763Z,98950.05
2018-12-17T02:13:37.193Z,98956.65
2018-12-17T02:16:06.695Z,98956.33
2018-12-17T02:18:35.846Z,98965.37
2018-12-17T02:21:05.007Z,98963.02
2018-12-17T02:23:34.717Z,98959.83
2018-12-17T02:26:04.357Z,98955.67
2018-12-17T02:28:36.228Z,98960.09
2018-12-17T02:31:05.178Z,98959.61
2018-12-17T02:33:34.529Z,98962.95
2018-12-17T02:36:05.769Z,98966.20
2018-12-17T02:38:35.335Z,98966.78
2018-12-17T02:41:04.585Z,98964.96
2018-12-17T02:43:33.705Z,98963.00
2018-12-17T02:46:03.849Z,98960.80
2018-12-17T02:48:33.132Z,98962.05
2018-12-17T02:51:03.006Z,98961.48
2018-12-17T02:53:32.429Z,98964.48
2018-12-17T02:56:01.923Z,98964.84
2018-12-17T02:58:31.636Z,98970.20
2018-12-17T03:01:00.794Z,98973.82
2018-12-17T03:03:30.537Z,98977.87
2018-12-17T03:05:59.692Z,98985.59
2018-12-17T03:08:29.257Z,98985.09
2018-12-17T03:10:58.689Z,98986.47
2018-12-17T03:13:27.881Z,98988.72
2018-12-17T03:16:00.864Z,98985.03
2018-12-17T03:18:30.808Z,98991.28
2018-12-17T03:21:00.403Z,98986.23
2018-12-17T03:23:30.211Z,98987.30
2018-12-17T03:26:02.125Z,98985.88
2018-12-17T03:28:31.285Z,98990.48
2018-12-17T03:31:00.472Z,98985.61
2018-12-17T03:33:29.639Z,98989.98
2018-12-17T03:36:02.559Z,98995.27
2018-12-17T03:38:32.973Z,99001.25
2018-12-17T03:41:02.536Z,98990.95
2018-12-17T03:43:32.168Z,98998.85
2018-12-17T03:46:01.878Z,99002.60
2018-12-17T03:48:31.309Z,99002.09
2018-12-17T03:51:01.050Z,99001.59
2018-12-17T03:53:30.970Z,99002.05
2018-12-17T03:56:00.581Z,99005.91
2018-12-17T03:58:29.834Z,99009.95
2018-12-17T04:00:59.807Z,99013.15
2018-12-17T04:03:29.332Z,99004.81
2018-12-17T04:05:59.029Z,99011.23
2018-12-17T04:08:28.677Z,99011.98
2018-12-17T04:10:58.209Z,99016.84
2018-12-17T04:13:27.743Z,99009.84
2018-12-17T04:15:57.544Z,99012.27
2018-12-17T04:18:27.611Z,99021.78
2018-12-17T04:20:57.061Z,99019.44
2018-12-17T04:23:26.323Z,99022.92
2018-12-17T04:25:57.622Z,99024.24
2018-12-17T04:28:26.777Z,99031.22
2018-12-17T04:30:56.024Z,99034.45
2018-12-17T04:33:25.169Z,99032.20
2018-12-17T04:35:54.262Z,99034.25
2018-12-17T04:38:23.788Z,99039.88
2018-12-17T04:40:52.967Z,99040.56
2018-12-17T04:43:22.268Z,99039.31
2018-12-17T04:45:51.803Z,99046.13
2018-12-17T04:48:21.346Z,99048.28
2018-12-17T04:50:50.680Z,99054.56
2018-12-17T04:53:23.303Z,99057.50
2018-12-17T04:55:52.797Z,99058.64
2018-12-17T04:58:24.051Z,99063.44
2018-12-17T05:00:53.538Z,99060.38
2018-12-17T05:03:22.687Z,99062.58
2018-12-17T05:05:52.421Z,99067.88
2018-12-17T05:08:21.580Z,99069.63
2018-12-17T05:10:50.825Z,99071.63
2018-12-17T05:13:20.683Z,99073.88
2018-12-17T05:15:49.885Z,99080.86
2018-12-17T05:18:19.516Z,99086.16
2018-12-17T05:20:49.079Z,99089.73
2018-12-17T05:23:18.976Z,99089.53
2018-12-17T05:25:48.157Z,99096.41
2018-12-17T05:28:17.376Z,99095.39
2018-12-17T05:30:46.512Z,99093.67
2018-12-17T05:33:16.625Z,99101.77
2018-12-17T05:35:46.418Z,99109.86
2018-12-17T05:38:17.267Z,99105.76
2018-12-17T05:40:47.011Z,99110.25
2018-12-17T05:43:16.441Z,99105.14
2018-12-17T05:45:46.349Z,99120.19
2018-12-17T05:48:15.657Z,99121.23
2018-12-17T05:50:44.972Z,99118.11
2018-12-17T05:53:14.084Z,99125.29
2018-12-17T05:55:44.317Z,99121.12
2018-12-17T05:58:14.000Z,99126.78
2018-12-17T06:00:44.171Z,99126.53
2018-12-17T06:03:14.546Z,99128.78
2018-12-17T06:05:44.647Z,99134.94
2018-12-17T06:08:13.843Z,99133.44
2018-12-17T06:10:43.067Z,99129.33
2018-12-17T06:13:12.187Z,99140.37
2018-12-17T06:15:42.014Z,99141.17
2018-12-17T06:18:11.300Z,99146.77
2018-12-17T06:20:40.479Z,99144.88
2018-12-17T06:23:09.728Z,99146.55
2018-12-17T06:25:38.862Z,99150.08
2018-12-17T06:28:08.169Z,99145.73
2018-12-17T06:30:38.234Z,99147.86
2018-12-17T06:33:15.483Z,99146.48
2018-12-17T06:35:40.926Z,99151.42
2018-12-17T06:38:10.202Z,99157.48
2018-12-17T06:40:39.984Z,99154.23
2018-12-17T06:43:09.826Z,99157.98
2018-12-17T06:45:39.382Z,99164.53
2018-12-17T06:48:09.252Z,99156.73
2018-12-17T06:50:38.987Z,99159.46
2018-12-17T06:53:08.132Z,99166.47
2018-12-17T06:55:37.265Z,99170.96
2018-12-17T06:58:08.676Z,99174.45
2018-12-17T07:00:42.192Z,99175.70
2018-12-17T07:03:12.182Z,99184.38
2018-12-17T07:05:41.338Z,99190.81
2018-12-17T07:08:10.701Z,99187.69
2018-12-17T07:10:40.599Z,99189.56
2018-12-17T07:13:10.177Z,99190.31
2018-12-17T07:15:40.454Z,99200.17
2018-12-17T07:18:10.985Z,99203.62
2018-12-17T07:20:47.611Z,99206.48
2018-12-17T07:23:17.172Z,99215.16
2018-12-17T07:25:46.824Z,99222.03
2018-12-17T07:28:16.067Z,99224.73
2018-12-17T07:30:45.786Z,99231.33
2018-12-17T07:33:15.604Z,99240.11
2018-12-17T07:35:45.500Z,99241.48
2018-12-17T07:38:14.720Z,99258.94
2018-12-17T07:40:49.148Z,99258.93
2018-12-17T07:43:26.225Z,99263.86
2018-12-17T07:45:55.866Z,99266.30
2018-12-17T07:48:26.888Z,99267.04
2018-12-17T07:50:56.416Z,99275.86
2018-12-17T07:53:25.720Z,99272.97
2018-12-17T07:55:58.372Z,99273.23
2018-12-17T07:58:28.542Z,99273.36
2018-12-17T08:00:58.406Z,99265.55
2018-12-17T08:03:28.949Z,99275.17
2018-12-17T08:05:58.176Z,99279.91
2018-12-17T08:08:27.416Z,99278.27
2018-12-17T08:10:57.539Z,99295.18
2018-12-17T08:13:27.224Z,99304.09
2018-12-17T08:15:56.399Z,99300.51
2018-12-17T08:18:27.600Z,99304.23
2018-12-17T08:20:57.669Z,99301.98
2018-12-17T08:23:26.897Z,99298.99
2018-12-17T08:25:56.513Z,99308.84
2018-12-17T08:28:26.307Z,99305.73
2018-12-17T08:30:55.763Z,99303.02
2018-12-17T08:33:25.086Z,99310.59
2018-12-17T08:35:54.365Z,99317.10
2018-12-17T08:38:24.084Z,99320.97
2018-12-17T08:40:53.432Z,99325.96
2018-12-17T08:43:25.089Z,99319.81
2018-12-17T08:46:05.426Z,99323.80
2018-12-17T08:48:39.202Z,99329.47
2018-12-17T08:51:08.336Z,99327.46
2018-12-17T08:53:37.496Z,99336.13
2018-12-17T08:56:07.690Z,99334.44
2018-12-17T08:58:36.981Z,99343.47
2018-12-17T09:01:06.167Z,99352.05
2018-12-17T09:03:35.469Z,99356.78
2018-12-17T09:06:04.815Z,99353.86
2018-12-17T09:08:34.042Z,99354.84
2018-12-17T09:11:03.257Z,99353.42
2018-12-17T09:13:32.603Z,99352.38
2018-12-17T09:16:02.243Z,99355.55
2018-12-17T09:18:31.652Z,99357.58
2018-12-17T09:21:00.905Z,99362.67
2018-12-17T09:23:30.530Z,99364.73
2018-12-17T09:25:59.704Z,99359.93
2018-12-17T09:28:29.169Z,99364.25
2018-12-17T09:30:58.776Z,99364.14
2018-12-17T09:33:28.963Z,99366.61
2018-12-17T09:35:58.301Z,99374.45
2018-12-17T09:38:27.501Z,99367.69
2018-12-17T09:40:57.221Z,99368.00
2018-12-17T09:43:26.465Z,99374.87
2018-12-17T09:45:55.717Z,99373.26
2018-12-17T09:48:24.893Z,99373.80
2018-12-17T09:50:54.345Z,99375.37
2018-12-17T09:53:23.785Z,99378.94
2018-12-17T09:55:53.041Z,99372.66
2018-12-17T09:58:22.246Z,99372.50
2018-12-17T10:00:51.638Z,99380.92
2018-12-17T10:03:20.747Z,99371.16
2018-12-17T10:05:50.075Z,99373.26
2018-12-17T10:08:19.995Z,99367.20
2018-12-17T10:10:49.863Z,99376.85
2018-12-17T10:13:19.181Z,99374.44
2018-12-17T10:15:48.472Z,99370.73
2018-12-17T10:18:17.878Z,99371.11
2018-12-17T10:20:47.477Z,99375.77
2018-12-17T10:23:26.630Z,99380.72
2018-12-17T10:28:59.622Z,99376.05
2018-12-17T10:31:29.776Z,99372.77
2018-12-17T10:34:22.807Z,99382.27
2018-12-17T10:36:52.049Z,99386.18
2018-12-17T10:39:21.618Z,99383.36
2018-12-17T10:41:55.808Z,99380.48
2018-12-17T10:44:29.023Z,99384.22
2018-12-17T10:46:58.323Z,99382.72
2018-12-17T10:49:34.142Z,99373.36
2018-12-17T10:52:04.385Z,99377.16
2018-12-17T10:54:34.487Z,99376.70
2018-12-17T10:57:04.737Z,99377.25
2018-12-17T11:02:19.383Z,99377.86
2018-12-17T11:04:57.311Z,99370.52
2018-12-17T11:07:27.692Z,99362.05
2018-12-17T11:09:57.086Z,99376.61
2018-12-17T11:12:28.577Z,99369.14
2018-12-17T11:14:58.147Z,99358.52
2018-12-17T11:17:27.429Z,99367.46
2018-12-17T11:19:56.920Z,99369.23
2018-12-17T11:22:27.412Z,99363.52
2018-12-17T11:24:56.522Z,99356.84
2018-12-17T11:27:26.215Z,99360.48
2018-12-17T11:29:56.566Z,99352.85
2018-12-17T11:32:26.838Z,99348.89
2018-12-17T11:34:56.072Z,99345.95
2018-12-17T11:37:25.618Z,99342.91
2018-12-17T11:39:55.037Z,99342.91
2018-12-17T11:42:24.817Z,99340.29
2018-12-17T11:44:54.274Z,99341.84
2018-12-17T11:47:25.604Z,99334.11
2018-12-17T11:49:54.824Z,99334.62
2018-12-17T11:52:25.797Z,99344.27
2018-12-17T11:54:55.981Z,99351.52
2018-12-17T11:57:50.374Z,99349.91
2018-12-17T12:00:22.960Z,99348.10
2018-12-17T12:02:58.929Z,99344.36
2018-12-17T12:05:24.591Z,99352.34
2018-12-17T12:07:53.830Z,99353.59
2018-12-17T12:10:23.070Z,99370.73
2018-12-17T12:12:53.471Z,99369.99
2018-12-17T12:15:23.452Z,99364.78
2018-12-17T12:17:53.502Z,99363.11
2018-12-17T12:20:22.839Z,99363.16
2018-12-17T12:22:52.421Z,99362.72
2018-12-17T12:25:21.738Z,99373.69
2018-12-17T12:27:50.993Z,99378.91
2018-12-17T12:30:21.065Z,99371.25
2018-12-17T12:32:50.658Z,99377.46
2018-12-17T12:35:20.489Z,99380.23
2018-12-17T12:37:49.795Z,99392.20
2018-12-17T12:40:19.385Z,99397.98
2018-12-17T12:42:51.778Z,99397.92
2018-12-17T12:45:21.379Z,99406.37
2018-12-17T12:47:51.886Z,99405.63
2018-12-17T12:50:21.066Z,99403.98
2018-12-17T12:52:50.232Z,99405.06
2018-12-17T12:55:19.460Z,99407.42
2018-12-17T12:57:48.758Z,99404.84
2018-12-17T13:00:18.311Z,99410.63
2018-12-17T13:02:47.541Z,99405.70
2018-12-17T13:05:16.742Z,99410.77
2018-12-17T13:07:47.949Z,99409.55
2018-12-17T13:10:18.353Z,99411.48
2018-12-17T13:12:47.695Z,99406.27
2018-12-17T13:15:16.925Z,99404.55
2018-12-17T13:17:46.141Z,99414.92
2018-12-17T13:20:15.542Z,99405.78
2018-12-17T13:22:45.410Z,99403.32
2018-12-17T13:25:19.826Z,99407.52
2018-12-17T13:27:50.523Z,99405.22
2018-12-17T13:30:22.415Z,99411.22
2018-12-17T13:33:09.210Z,99413.98
2018-12-17T13:35:38.901Z,99414.80
2018-12-17T13:38:09.827Z,99416.88
2018-12-17T13:40:39.154Z,99428.34
2018-12-17T13:43:08.490Z,99428.20
2018-12-17T13:45:38.461Z,99423.09
2018-12-17T13:48:08.655Z,99416.66
2018-12-17T13:50:39.933Z,99418.38
2018-12-17T13:53:14.377Z,99420.54
2018-12-17T13:55:43.744Z,99428.44
2018-12-17T13:58:14.392Z,99426.15
2018-12-17T14:00:43.923Z,99439.08
2018-12-17T14:03:14.898Z,99443.46
2018-12-17T14:05:44.186Z,99452.23
2018-12-17T14:08:13.838Z,99452.95
2018-12-17T14:10:48.429Z,99463.47
2018-12-17T14:13:17.620Z,99458.81
2018-12-17T14:15:51.595Z,99453.92
2018-12-17T14:18:26.395Z,99464.77
2018-12-17T14:21:01.066Z,99474.02
2018-12-17T14:23:30.255Z,99478.47
2018-12-17T14:25:59.785Z,99479.79
2018-12-17T14:28:29.012Z,99476.33
2018-12-17T14:30:58.171Z,99484.64
2018-12-17T14:33:27.288Z,99486.01
2018-12-17T14:36:01.866Z,99493.49
2018-12-17T14:38:31.039Z,99492.78
2018-12-17T14:41:00.912Z,99498.36
2018-12-17T14:43:30.454Z,99497.64
2018-12-17T14:45:59.654Z,99498.84
2018-12-17T14:48:28.855Z,99497.59
2018-12-17T14:50:58.127Z,99502.66
2018-12-17T14:53:27.405Z,99501.67
2018-12-17T14:55:56.686Z,99503.22
2018-12-17T14:58:25.896Z,99506.70
2018-12-17T15:00:55.036Z,99511.33
2018-12-17T15:03:24.262Z,99521.65
2018-12-17T15:05:53.509Z,99526.67
2018-12-17T15:08:23.035Z,99526.72
2018-12-17T15:10:52.292Z,99528.41
2018-12-17T15:13:22.605Z,99527.03
2018-12-17T15:15:51.990Z,99529.02
2018-12-17T15:18:21.354Z,99529.91
2018-12-17T15:20:50.905Z,99536.84
2018-12-17T15:23:20.244Z,99541.75
2018-12-17T15:25:50.430Z,99540.04
2018-12-17T15:28:20.272Z,99549.05
2018-12-17T15:30:49.545Z,99557.00
2018-12-17T15:33:18.802Z,99557.33
2018-12-17T15:35:48.897Z,99555.72
2018-12-17T15:38:18.574Z,99557.61
2018-12-17T15:40:47.922Z,99559.12
2018-12-17T15:43:17.596Z,99567.63
2018-12-17T15:45:49.316Z,99562.84
2018-12-17T15:48:20.879Z,99568.80
2018-12-17T15:50:50.142Z,99570.05
2018-12-17T15:53:19.556Z,99572.97
2018-12-17T15:55:49.158Z,99578.61
2018-12-17T15:58:18.352Z,99572.30
2018-12-17T16:00:47.533Z,99579.23
2018-12-17T16:03:16.801Z,99579.91
2018-12-17T16:05:46.467Z,99580.95
2018-12-17T16:08:15.670Z,99574.39
2018-12-17T16:10:44.949Z,99579.94
2018-12-17T16:13:15.213Z,99585.80
2018-12-17T16:15:44.785Z,99578.03
2018-12-17T16:18:14.117Z,99584.95
2018-12-17T16:20:44.800Z,99594.98
2018-12-17T16:23:14.248Z,99593.27
2018-12-17T16:25:43.478Z,99589.94
2018-12-17T16:28:12.640Z,99595.25
2018-12-17T16:30:42.216Z,99597.34
2018-12-17T16:33:11.786Z,99604.78
2018-12-17T16:35:41.069Z,99601.58
2018-12-17T16:38:10.220Z,99605.61
2018-12-17T16:43:35.987Z,99603.91
2018-12-17T16:46:09.306Z,99604.19
2018-12-17T16:48:40.074Z,99600.62
2018-12-17T16:51:10.955Z,99599.53
2018-12-17T16:53:40.170Z,99598.37
2018-12-17T16:56:10.405Z,99603.11
2018-12-17T16:58:39.674Z,99606.69
2018-12-17T17:01:15.543Z,99599.75
2018-12-17T17:03:45.594Z,99603.18
2018-12-17T17:06:14.811Z,99603.30
2018-12-17T17:08:44.077Z,99602.03
2018-12-17T17:11:13.829Z,99604.23
2018-12-17T17:13:43.117Z,99607.94
2018-12-17T17:16:12.659Z,99614.84
2018-12-17T17:18:41.825Z,99608.59
2018-12-17T17:21:11.055Z,99611.07
2018-12-17T17:23:40.226Z,99604.02
2018-12-17T17:26:09.459Z,99618.28
2018-12-17T17:28:38.597Z,99619.67
2018-12-17T17:31:08.257Z,99618.36
2018-12-17T17:33:37.487Z,99625.50
2018-12-17T17:36:06.657Z,99629.66
2018-12-17T17:38:37.006Z,99629.86
2018-12-17T17:41:06.492Z,99636.72
2018-12-17T17:43:35.656Z,99637.52
2018-12-17T17:46:04.825Z,99638.53
2018-12-17T17:48:33.959Z,99642.77
2018-12-17T17:51:04.286Z,99640.22
2018-12-17T17:53:33.432Z,99647.12
2018-12-17T17:56:03.158Z,99644.95
2018-12-17T17:58:32.526Z,99654.78
2018-12-17T18:01:02.030Z,99655.41
2018-12-17T18:03:32.382Z,99659.50
2018-12-17T18:06:01.528Z,99663.36
2018-12-17T18:08:31.043Z,99669.14
2018-12-17T18:11:00.188Z,99665.56
2018-12-17T18:13:29.346Z,99671.31
2018-12-17T18:15:59.033Z,99675.55
2018-12-17T18:18:28.395Z,99679.76
2018-12-17T18:20:57.497Z,99684.80
2018-12-17T18:23:26.691Z,99689.02
2018-12-17T18:25:55.815Z,99684.57
2018-12-17T18:28:25.035Z,99696.30
2018-12-17T18:30:55.063Z,99693.45
2018-12-17T18:33:24.573Z,99699.80
2018-12-17T18:35:53.760Z,99699.22
2018-12-17T18:38:22.955Z,99700.80
2018-12-17T18:40:52.771Z,99709.05
2018-12-17T18:43:22.210Z,99705.70
2018-12-17T18:45:52.167Z,99710.21
2018-12-17T18:48:22.356Z,99713.06
2018-12-17T18:50:51.753Z,99714.06
2018-12-17T18:53:20.990Z,99715.82
2018-12-17T18:55:50.703Z,99717.95
2018-12-17T18:58:19.906Z,99717.36
2018-12-17T19:00:49.707Z,99724.56
2018-12-17T19:03:19.257Z,99728.73
2018-12-17T19:05:48.568Z,99727.19
2018-12-17T19:08:18.015Z,99736.67
2018-12-17T19:10:51.784Z,99736.67
2018-12-17T19:13:21.998Z,99743.92
2018-12-17T19:15:51.273Z,99744.80
2018-12-17T19:18:20.650Z,99747.16
2018-12-17T19:20:50.445Z,99750.96
2018-12-17T19:23:25.013Z,99744.90
2018-12-17T19:25:54.269Z,99751.15
2018-12-17T19:28:23.577Z,99763.34
2018-12-17T19:30:52.677Z,99758.73
2018-12-17T19:33:21.934Z,99757.78
2018-12-17T19:35:51.288Z,99759.24
2018-12-17T19:38:20.643Z,99757.00
2018-12-17T19:40:49.802Z,99755.74
2018-12-17T19:43:19.004Z,99759.98
2018-12-17T19:45:48.144Z,99761.72
2018-12-17T19:48:17.350Z,99765.37
2018-12-17T19:50:46.637Z,99765.81
2018-12-17T19:53:15.773Z,99766.39
2018-12-17T19:55:45.315Z,99767.22
2018-12-17T19:58:14.441Z,99763.20
2018-12-17T20:00:44.228Z,99769.19
2018-12-17T20:03:13.564Z,99768.03
2018-12-17T20:05:42.707Z,99768.19
2018-12-17T20:08:11.890Z,99766.88
2018-12-17T20:10:41.219Z,99776.41
2018-12-17T20:13:10.381Z,99777.14
2018-12-17T20:15:39.602Z,99781.81
2018-12-17T20:18:08.885Z,99786.25
2018-12-17T20:20:38.061Z,99786.41
2018-12-17T20:23:07.218Z,99790.19
2018-12-17T20:25:36.462Z,99789.45
2018-12-17T20:28:05.674Z,99791.18
2018-12-17T20:30:35.531Z,99792.50
2018-12-17T20:33:04.827Z,99793.23
2018-12-17T20:35:33.978Z,99797.55
2018-12-17T20:38:04.561Z,99794.98
2018-12-17T20:40:33.811Z,99804.59
2018-12-17T20:43:03.016Z,99805.41
2018-12-17T20:45:32.235Z,99804.88
2018-12-17T20:48:02.048Z,99805.76
2018-12-17T20:50:37.794Z,99800.96
2018-12-17T20:53:09.766Z,99808.11
2018-12-17T20:58:21.458Z,99804.92
2018-12-17T21:00:50.671Z,99806.17
2018-12-17T21:03:19.818Z,99801.77
2018-12-17T21:05:48.971Z,99798.95
2018-12-17T21:08:18.271Z,99794.86
2018-12-17T21:10:47.453Z,99790.54
2018-12-17T21:13:17.040Z,99796.75
2018-12-17T21:15:46.497Z,99800.38
2018-12-17T21:18:16.870Z,99795.09
2018-12-17T21:20:46.204Z,99799.52
2018-12-17T21:23:19.528Z,99802.80
2018-12-17T21:25:50.045Z,99792.00
2018-12-17T21:28:20.317Z,99794.34
2018-12-17T21:30:49.924Z,99804.27
2018-12-17T21:33:20.125Z,99796.32
2018-12-17T21:35:49.367Z,99805.84
2018-12-17T21:38:19.028Z,99806.73
2018-12-17T21:40:48.443Z,99804.62
2018-12-17T21:43:17.700Z,99803.61
2018-12-17T21:45:47.001Z,99810.87
2018-12-17T21:48:17.174Z,99815.42
2018-12-17T21:50:46.962Z,99810.68
2018-12-17T21:53:17.005Z,99818.33
2018-12-17T21:55:46.315Z,99812.07
2018-12-17T21:58:15.900Z,99816.59
2018-12-17T22:00:45.398Z,99820.38
2018-12-17T22:03:14.659Z,99821.84
2018-12-17T22:07:08.720Z,99824.89
2018-12-17T22:09:38.316Z,99827.02
2018-12-17T22:12:08.383Z,99825.05
2018-12-17T22:14:37.775Z,99820.88
2018-12-17T22:17:08.428Z,99825.97
2018-12-17T22:19:37.609Z,99835.38
2018-12-17T22:22:07.010Z,99835.75
2018-12-17T22:24:36.210Z,99829.70
2018-12-17T22:27:05.509Z,99835.09
2018-12-17T22:29:35.680Z,99834.13
2018-12-17T22:32:04.962Z,99837.08
2018-12-17T22:34:34.739Z,99839.75
2018-12-17T22:37:04.000Z,99837.44
2018-12-17T22:39:33.703Z,99838.75
2018-12-17T22:42:04.276Z,99846.94
2018-12-17T22:44:34.248Z,99842.20
2018-12-17T22:47:04.410Z,99841.97
2018-12-17T22:49:33.984Z,99840.22
2018-12-17T22:52:03.242Z,99831.19
2018-12-17T22:54:32.410Z,99832.55
2018-12-17T22:57:02.035Z,99835.13
2018-12-17T22:59:31.683Z,99836.28
2018-12-17T23:02:01.707Z,99842.19
2018-12-17T23:04:31.209Z,99845.62
2018-12-17T23:07:00.461Z,99843.85
2018-12-17T23:09:40.970Z,99848.09
2018-12-17T23:12:21.397Z,99842.99
2018-12-17T23:15:01.562Z,99844.50
2018-12-17T23:17:40.777Z,99841.07
2018-12-17T23:20:12.168Z,99845.98
2018-12-17T23:22:44.550Z,99840.80
2018-12-17T23:25:16.499Z,99841.23
2018-12-17T23:27:50.417Z,99852.97
2018-12-17T23:30:22.685Z,99854.59
2018-12-17T23:32:52.320Z,99848.37
2018-12-17T23:35:21.591Z,99850.49
2018-12-17T23:37:52.519Z,99852.31
2018-12-17T23:40:22.382Z,99847.22
2018-12-17T23:42:51.625Z,99851.07
2018-12-17T23:45:20.999Z,99842.70
2018-12-17T23:47:51.084Z,99846.94
2018-12-17T23:50:21.181Z,99860.50
2018-12-17T23:52:50.714Z,99852.23
2018-12-17T23:55:20.008Z,99851.73
2018-12-17T23:57:50.711Z,99855.02
